createdAt,value
2019-02-27T00:00:20.486Z,63.52
2019-02-27T00:02:51.078Z,50.43
2019-02-27T00:05:21.718Z,66.40
2019-02-27T00:07:54.863Z,61.25
2019-02-27T00:10:24.629Z,58.73
2019-02-27T00:12:55.340Z,48.30
2019-02-27T00:15:26.013Z,32.15
2019-02-27T00:17:56.562Z,19.83
2019-02-27T00:20:27.128Z,36.17
2019-02-27T00:22:57.712Z,38.80
2019-02-27T00:25:28.321Z,33.75
2019-02-27T00:27:58.910Z,36.63
2019-02-27T00:30:29.455Z,36.63
2019-02-27T00:33:00.027Z,46.25
2019-02-27T00:35:30.609Z,49.45
2019-02-27T00:38:01.239Z,51.17
2019-02-27T00:40:31.868Z,45.12
2019-02-27T00:43:02.428Z,47.08
2019-02-27T00:45:33.051Z,48.10
2019-02-27T00:48:03.691Z,36.75
2019-02-27T00:50:34.332Z,41.80
2019-02-27T00:53:05.057Z,36.30
2019-02-27T00:55:38.644Z,58.55
2019-02-27T00:58:08.008Z,50.65
2019-02-27T01:00:39.316Z,63.35
2019-02-27T01:03:10.621Z,77.30
2019-02-27T01:05:41.722Z,78.40
2019-02-27T01:08:12.400Z,79.30
2019-02-27T01:10:45.312Z,59.90
2019-02-27T01:13:15.309Z,65.12
2019-02-27T01:15:45.911Z,64.77
2019-02-27T01:18:16.460Z,57.30
2019-02-27T01:20:47.039Z,61.73
2019-02-27T01:23:17.576Z,54.05
2019-02-27T01:25:48.155Z,55.98
2019-02-27T01:28:18.711Z,54.60
2019-02-27T01:30:49.259Z,61.87
2019-02-27T01:33:19.874Z,55.58
2019-02-27T01:35:52.266Z,62.60
2019-02-27T01:38:23.050Z,59.30
2019-02-27T01:40:53.737Z,69.55
2019-02-27T01:43:24.324Z,69.58
2019-02-27T01:45:55.044Z,68.70
2019-02-27T01:48:25.709Z,67.25
2019-02-27T01:50:56.293Z,62.98
2019-02-27T01:53:26.990Z,59.10
2019-02-27T01:55:57.550Z,55.17
2019-02-27T01:58:28.268Z,60.25
2019-02-27T02:00:58.825Z,49.38
2019-02-27T02:03:29.432Z,64.85
2019-02-27T02:06:00.023Z,51.02
2019-02-27T02:08:30.699Z,41.00
2019-02-27T02:11:02.037Z,45.15
2019-02-27T02:14:24.058Z,60.67
2019-02-27T02:17:41.922Z,65.17
2019-02-27T02:20:41.549Z,57.35
2019-02-27T02:23:49.460Z,62.70
2019-02-27T02:27:20.571Z,58.13
2019-02-27T02:30:33.743Z,51.05
2019-02-27T02:33:28.663Z,45.30
2019-02-27T02:37:02.425Z,49.10
2019-02-27T02:40:09.058Z,48.83
2019-02-27T02:43:41.984Z,52.55
2019-02-27T02:47:06.113Z,63.60
2019-02-27T02:50:46.321Z,57.27
2019-02-27T02:54:04.475Z,53.58
2019-02-27T02:57:05.154Z,57.08
2019-02-27T03:00:28.220Z,56.55
2019-02-27T03:03:43.804Z,63.68
2019-02-27T03:06:57.758Z,64.32
2019-02-27T03:10:08.373Z,70.97
2019-02-27T03:13:41.796Z,64.37
2019-02-27T03:16:59.252Z,69.20
2019-02-27T03:20:26.448Z,66.47
2019-02-27T03:23:52.071Z,71.25
2019-02-27T03:26:39.317Z,69.25
2019-02-27T03:30:34.278Z,65.95
2019-02-27T03:33:33.126Z,55.00
2019-02-27T03:37:04.553Z,56.23
2019-02-27T03:40:26.170Z,64.55
2019-02-27T03:43:38.561Z,65.95
2019-02-27T03:47:22.416Z,69.15
2019-02-27T03:50:36.593Z,56.13
2019-02-27T03:53:59.882Z,49.20
2019-02-27T03:57:34.516Z,48.58
2019-02-27T04:00:30.503Z,54.58
2019-02-27T04:04:03.809Z,47.23
2019-02-27T04:07:31.897Z,58.20
2019-02-27T04:10:02.970Z,66.92
2019-02-27T05:04:35.150Z,59.65
2019-02-27T05:07:06.916Z,49.88
2019-02-27T05:09:37.455Z,53.00
2019-02-27T05:12:08.274Z,43.87
2019-02-27T05:14:40.800Z,39.15
2019-02-27T05:17:12.868Z,44.93
2019-02-27T05:19:43.775Z,40.20
2019-02-27T05:22:14.248Z,44.25
2019-02-27T05:24:44.725Z,43.15
2019-02-27T05:27:15.256Z,61.48
2019-02-27T05:29:45.801Z,61.17
2019-02-27T05:32:18.149Z,65.37
2019-02-27T05:34:49.796Z,59.40
2019-02-27T05:37:21.032Z,69.65
2019-02-27T05:39:51.761Z,64.37
2019-02-27T05:42:22.372Z,60.25
2019-02-27T05:44:55.488Z,67.27
2019-02-27T05:47:25.200Z,67.22
2019-02-27T05:49:57.988Z,70.32
2019-02-27T05:52:27.966Z,68.15
2019-02-27T05:54:58.497Z,70.95
2019-02-27T05:57:28.953Z,69.77
2019-02-27T06:00:02.189Z,66.65
2019-02-27T06:02:31.742Z,63.65
2019-02-27T06:05:02.526Z,54.75
2019-02-27T06:07:33.052Z,44.48
2019-02-27T06:10:03.618Z,46.50
2019-02-27T06:12:34.069Z,52.70
2019-02-27T06:15:04.696Z,55.38
2019-02-27T06:17:43.151Z,61.33
2019-02-27T06:20:08.598Z,69.72
2019-02-27T06:22:39.317Z,63.95
2019-02-27T06:25:13.199Z,64.30
2019-02-27T06:27:43.775Z,56.73
2019-02-27T06:30:17.626Z,59.13
2019-02-27T06:32:48.209Z,58.45
2019-02-27T06:35:18.749Z,72.03
2019-02-27T06:37:50.766Z,55.67
2019-02-27T06:40:21.513Z,70.85
2019-02-27T06:42:53.840Z,91.08
2019-02-27T06:45:24.275Z,65.90
2019-02-27T06:47:54.770Z,62.53
2019-02-27T06:50:26.081Z,56.23
2019-02-27T06:52:56.645Z,49.67
2019-02-27T06:55:28.133Z,52.45
2019-02-27T06:57:59.486Z,59.03
2019-02-27T07:00:29.974Z,56.60
2019-02-27T07:03:00.566Z,58.87
2019-02-27T07:05:31.200Z,62.43
2019-02-27T07:08:04.332Z,75.45
2019-02-27T07:10:34.048Z,64.53
2019-02-27T07:13:04.542Z,69.15
2019-02-27T07:15:35.075Z,68.72
2019-02-27T07:18:06.231Z,72.62
2019-02-27T07:20:37.233Z,68.67
2019-02-27T07:23:07.723Z,67.70
2019-02-27T07:25:41.987Z,69.42
2019-02-27T07:28:10.443Z,62.45
2019-02-27T07:30:42.581Z,69.47
2019-02-27T07:33:13.150Z,87.20
2019-02-27T07:35:43.669Z,69.45
2019-02-27T07:38:14.098Z,69.70
2019-02-27T07:40:44.635Z,62.75
2019-02-27T07:43:15.137Z,56.33
2019-02-27T07:45:46.226Z,53.17
2019-02-27T07:48:16.943Z,52.43
2019-02-27T07:50:49.176Z,56.70
2019-02-27T07:53:19.648Z,61.92
2019-02-27T07:55:50.173Z,51.92
2019-02-27T07:58:20.643Z,62.35
2019-02-27T08:00:51.137Z,74.17
2019-02-27T08:03:21.663Z,69.58
2019-02-27T08:05:52.132Z,65.03
2019-02-27T08:08:23.617Z,65.15
2019-02-27T08:10:54.975Z,70.05
2019-02-27T08:13:27.078Z,68.28
2019-02-27T08:15:58.122Z,57.98
2019-02-27T08:18:30.557Z,63.90
2019-02-27T08:21:01.483Z,62.03
2019-02-27T08:23:32.894Z,51.80
2019-02-27T08:26:05.182Z,53.25
2019-02-27T08:28:35.865Z,45.00
2019-02-27T08:31:06.398Z,49.15
2019-02-27T08:33:36.955Z,52.55
2019-02-27T08:36:07.471Z,49.03
2019-02-27T08:38:37.982Z,52.15
2019-02-27T08:41:08.487Z,49.15
2019-02-27T08:43:41.191Z,38.65
2019-02-27T08:46:11.230Z,48.63
2019-02-27T08:48:41.918Z,44.55
2019-02-27T08:51:12.398Z,45.30
2019-02-27T08:53:42.906Z,42.78
2019-02-27T08:56:13.450Z,41.97
2019-02-27T08:58:43.967Z,45.28
2019-02-27T09:01:14.585Z,42.30
2019-02-27T09:03:45.170Z,42.67
2019-02-27T09:06:18.384Z,47.23
2019-02-27T09:08:47.899Z,43.85
2019-02-27T09:11:18.445Z,40.75
2019-02-27T09:13:48.920Z,40.30
2019-02-27T09:16:19.415Z,44.42
2019-02-27T09:18:49.953Z,42.53
2019-02-27T09:21:20.499Z,39.80
2019-02-27T09:23:51.094Z,38.17
2019-02-27T09:26:21.650Z,40.78
2019-02-27T09:28:52.146Z,38.98
2019-02-27T09:31:22.632Z,37.60
2019-02-27T09:33:53.905Z,47.75
2019-02-27T09:36:24.445Z,45.48
2019-02-27T09:38:57.329Z,41.00
2019-02-27T09:41:27.102Z,40.43
2019-02-27T09:43:58.618Z,39.23
2019-02-27T09:46:29.738Z,39.48
2019-02-27T09:49:00.290Z,40.92
2019-02-27T09:51:30.771Z,42.98
2019-02-27T09:54:01.240Z,42.53
2019-02-27T09:56:32.811Z,46.53
2019-02-27T09:59:03.361Z,40.85
2019-02-27T10:01:35.151Z,38.75
2019-02-27T10:04:05.935Z,43.20
2019-02-27T10:06:36.454Z,42.38
2019-02-27T10:09:08.803Z,38.40
2019-02-27T10:11:39.353Z,38.85
2019-02-27T10:14:09.852Z,36.88
2019-02-27T10:16:40.344Z,37.83
2019-02-27T10:19:10.942Z,37.05
2019-02-27T10:21:41.480Z,33.15
2019-02-27T10:24:13.690Z,36.05
2019-02-27T10:26:44.278Z,36.42
2019-02-27T10:29:14.793Z,37.93
2019-02-27T10:31:45.334Z,40.92
2019-02-27T10:34:17.587Z,40.55
2019-02-27T10:36:48.558Z,38.13
2019-02-27T10:39:19.186Z,35.57
2019-02-27T10:41:50.646Z,30.82
2019-02-27T10:44:21.224Z,35.80
2019-02-27T10:46:52.161Z,34.83
2019-02-27T10:49:22.755Z,37.10
2019-02-27T10:51:53.292Z,34.15
2019-02-27T10:54:23.833Z,31.20
2019-02-27T10:56:56.334Z,31.12
2019-02-27T10:59:26.654Z,32.20
2019-02-27T11:01:57.190Z,31.12
2019-02-27T11:04:27.814Z,27.73
2019-02-27T11:06:58.420Z,34.25
2019-02-27T11:09:30.365Z,30.20
2019-02-27T11:12:00.892Z,30.82
2019-02-27T11:14:32.661Z,26.33
2019-02-27T11:17:03.488Z,27.98
2019-02-27T11:19:34.906Z,27.90
2019-02-27T11:22:05.603Z,24.57
2019-02-27T11:24:36.131Z,29.98
2019-02-27T11:27:06.893Z,27.42
2019-02-27T11:29:37.566Z,30.20
2019-02-27T11:32:08.099Z,25.53
2019-02-27T11:34:38.672Z,28.38
2019-02-27T11:37:12.969Z,22.73
2019-02-27T11:39:41.389Z,26.75
2019-02-27T11:42:11.999Z,25.45
2019-02-27T11:44:42.627Z,30.85
2019-02-27T11:47:13.164Z,22.23
2019-02-27T11:49:43.779Z,29.67
2019-02-27T11:52:14.270Z,25.08
2019-02-27T11:54:44.785Z,25.70
2019-02-27T11:57:15.427Z,27.45
2019-02-27T11:59:47.000Z,28.63
2019-02-27T12:02:18.092Z,27.17
2019-02-27T12:04:53.355Z,23.70
2019-02-27T12:07:20.964Z,22.40
2019-02-27T12:09:51.444Z,23.50
2019-02-27T12:12:24.100Z,25.55
2019-02-27T12:14:54.673Z,29.02
2019-02-27T12:17:25.688Z,26.62
2019-02-27T12:19:56.425Z,23.85
2019-02-27T12:22:26.941Z,24.12
2019-02-27T12:24:58.347Z,23.60
2019-02-27T12:27:48.004Z,23.30
2019-02-27T12:30:02.998Z,29.92
2019-02-27T12:32:33.575Z,29.05
2019-02-27T12:35:04.111Z,26.52
2019-02-27T12:37:34.933Z,26.80
2019-02-27T12:40:06.945Z,27.70
2019-02-27T12:42:42.168Z,28.17
2019-02-27T12:45:14.017Z,27.00
2019-02-27T12:47:45.025Z,24.25
2019-02-27T12:50:18.824Z,23.57
2019-02-27T12:52:49.426Z,24.32
2019-02-27T12:55:20.598Z,27.67
2019-02-27T12:57:52.406Z,29.35
2019-02-27T13:00:28.757Z,24.52
2019-02-27T13:02:59.490Z,26.33
2019-02-27T13:05:30.671Z,22.42
2019-02-27T13:08:01.183Z,32.35
2019-02-27T13:10:34.015Z,24.00
2019-02-27T13:13:03.985Z,25.90
2019-02-27T13:15:34.513Z,22.20
2019-02-27T13:18:05.080Z,24.95
2019-02-27T13:20:35.784Z,24.15
2019-02-27T13:23:06.308Z,22.80
2019-02-27T13:25:36.859Z,24.97
2019-02-27T13:28:07.367Z,22.27
2019-02-27T13:30:41.303Z,27.17
2019-02-27T13:33:10.140Z,24.05
2019-02-27T13:35:40.733Z,22.43
2019-02-27T13:38:11.220Z,25.20
2019-02-27T13:40:41.766Z,23.33
2019-02-27T13:43:12.308Z,23.07
2019-02-27T13:45:47.279Z,22.10
2019-02-27T13:48:15.056Z,20.50
2019-02-27T13:50:45.606Z,21.95
2019-02-27T13:53:16.144Z,23.92
2019-02-27T13:55:48.305Z,23.15
2019-02-27T13:58:18.890Z,18.40
2019-02-27T14:00:49.389Z,20.55
2019-02-27T14:03:19.921Z,18.03
2019-02-27T14:05:50.516Z,18.50
2019-02-27T14:08:20.982Z,18.63
2019-02-27T14:10:53.386Z,17.90
2019-02-27T14:13:23.759Z,21.45
2019-02-27T14:15:54.291Z,22.65
2019-02-27T14:18:24.848Z,21.62
2019-02-27T14:20:55.355Z,22.67
2019-02-27T14:23:25.842Z,21.10
2019-02-27T14:25:56.345Z,21.60
2019-02-27T14:28:26.889Z,19.55
2019-02-27T14:30:58.739Z,19.95
2019-02-27T14:33:29.954Z,17.27
2019-02-27T14:36:00.697Z,20.70
2019-02-27T14:38:31.212Z,16.37
2019-02-27T14:41:01.739Z,16.37
2019-02-27T14:43:32.251Z,23.98
2019-02-27T14:46:02.797Z,18.02
2019-02-27T14:48:33.377Z,18.73
2019-02-27T14:51:07.164Z,17.07
2019-02-27T14:53:36.092Z,17.32
2019-02-27T14:56:09.200Z,17.82
2019-02-27T14:58:38.924Z,14.93
2019-02-27T15:01:11.841Z,15.03
2019-02-27T15:03:43.318Z,13.53
2019-02-27T15:06:15.894Z,14.38
2019-02-27T15:08:55.208Z,11.97
2019-02-27T15:11:18.386Z,16.40
2019-02-27T15:13:48.930Z,16.40
2019-02-27T15:16:19.535Z,16.67
2019-02-27T15:18:50.075Z,14.38
2019-02-27T15:21:20.652Z,14.50
2019-02-27T15:23:51.232Z,15.35
2019-02-27T15:26:21.742Z,15.35
2019-02-27T15:28:52.237Z,14.10
2019-02-27T15:31:22.885Z,18.75
2019-02-27T15:33:54.000Z,20.65
2019-02-27T15:36:29.462Z,13.98
2019-02-27T15:38:56.956Z,17.40
2019-02-27T15:41:27.410Z,15.50
2019-02-27T15:44:00.466Z,19.12
2019-02-27T15:46:30.274Z,19.17
2019-02-27T15:49:00.865Z,20.43
2019-02-27T15:51:32.339Z,18.30
2019-02-27T15:54:03.727Z,20.00
2019-02-27T15:56:34.288Z,19.48
2019-02-27T15:59:08.106Z,20.70
2019-02-27T16:01:37.227Z,19.00
2019-02-27T16:04:07.748Z,18.90
2019-02-27T16:06:39.819Z,18.85
2019-02-27T16:09:11.469Z,22.50
2019-02-27T16:11:42.181Z,20.48
2019-02-27T16:14:12.671Z,20.20
2019-02-27T16:16:43.327Z,20.75
2019-02-27T16:19:13.862Z,19.62
2019-02-27T16:21:44.543Z,22.45
2019-02-27T16:24:15.059Z,24.72
2019-02-27T16:26:45.646Z,24.20
2019-02-27T16:29:16.169Z,27.20
2019-02-27T16:31:46.781Z,21.87
2019-02-27T16:34:17.376Z,38.80
2019-02-27T16:36:47.976Z,25.95
2019-02-27T16:39:18.965Z,22.07
2019-02-27T16:41:49.508Z,22.65
2019-02-27T16:44:22.054Z,25.35
2019-02-27T16:46:53.516Z,25.40
2019-02-27T16:49:24.267Z,24.45
2019-02-27T16:51:54.888Z,28.23
2019-02-27T16:54:27.478Z,24.55
2019-02-27T16:56:58.273Z,28.10
2019-02-27T16:59:28.912Z,25.95
2019-02-27T17:02:00.906Z,25.37
2019-02-27T17:04:34.112Z,25.35
2019-02-27T17:07:04.226Z,25.15
2019-02-27T17:09:34.766Z,29.00
2019-02-27T17:12:07.089Z,25.90
2019-02-27T17:14:39.287Z,33.38
2019-02-27T17:17:09.950Z,31.33
2019-02-27T17:19:40.630Z,26.70
2019-02-27T17:22:11.308Z,28.92
2019-02-27T17:24:41.794Z,29.80
2019-02-27T17:27:12.983Z,27.77
2019-02-27T17:29:44.744Z,31.48
2019-02-27T17:32:15.339Z,28.27
2019-02-27T17:34:47.660Z,32.20
2019-02-27T17:37:18.069Z,34.30
2019-02-27T17:39:48.481Z,28.30
2019-02-27T17:42:19.337Z,29.98
2019-02-27T17:44:49.904Z,31.15
2019-02-27T17:47:20.410Z,27.17
2019-02-27T17:49:51.020Z,33.95
2019-02-27T17:52:21.521Z,29.33
2019-02-27T17:54:52.062Z,26.00
2019-02-27T17:57:24.993Z,29.30
2019-02-27T17:59:54.984Z,27.93
2019-02-27T18:02:25.502Z,31.73
2019-02-27T18:04:56.016Z,33.05
2019-02-27T18:07:34.237Z,37.65
2019-02-27T18:10:01.167Z,31.30
2019-02-27T18:12:30.970Z,31.80
2019-02-27T18:15:01.443Z,31.85
2019-02-27T18:17:34.706Z,30.82
2019-02-27T18:20:04.490Z,31.42
2019-02-27T18:22:35.121Z,32.48
2019-02-27T18:25:07.503Z,30.02
2019-02-27T18:27:38.199Z,37.47
2019-02-27T18:30:10.492Z,28.17
2019-02-27T18:32:41.011Z,34.55
2019-02-27T18:35:13.202Z,26.70
2019-02-27T18:37:43.718Z,29.30
2019-02-27T18:40:14.852Z,25.32
2019-02-27T18:42:45.504Z,32.42
2019-02-27T18:45:17.188Z,31.27
2019-02-27T18:47:47.749Z,27.05
2019-02-27T18:50:18.591Z,31.43
2019-02-27T18:52:49.267Z,36.17
2019-02-27T18:55:20.033Z,35.40
2019-02-27T18:57:50.617Z,29.67
2019-02-27T19:00:22.671Z,31.65
2019-02-27T19:02:54.704Z,25.43
2019-02-27T19:05:25.212Z,29.70
2019-02-27T19:07:55.787Z,27.05
2019-02-27T19:10:26.303Z,39.20
2019-02-27T19:12:59.965Z,41.23
2019-02-27T19:15:29.318Z,35.92
2019-02-27T19:17:59.914Z,37.98
2019-02-27T19:20:31.746Z,33.13
2019-02-27T19:23:02.242Z,31.15
2019-02-27T19:25:34.648Z,35.78
2019-02-27T19:28:05.299Z,31.95
2019-02-27T19:30:38.760Z,30.75
2019-02-27T19:33:08.320Z,31.42
2019-02-27T19:35:39.774Z,31.33
2019-02-27T19:38:12.962Z,25.40
2019-02-27T19:40:42.787Z,24.90
2019-02-27T19:43:13.428Z,29.92
2019-02-27T19:45:43.983Z,31.23
2019-02-27T19:48:14.784Z,30.12
2019-02-27T19:50:46.396Z,29.80
2019-02-27T19:53:17.098Z,30.20
2019-02-27T19:55:47.620Z,27.60
2019-02-27T19:58:18.392Z,28.90
2019-02-27T20:00:49.034Z,26.70
2019-02-27T20:03:20.777Z,31.85
2019-02-27T20:05:53.236Z,30.37
2019-02-27T20:08:23.594Z,31.37
2019-02-27T20:10:54.196Z,26.40
2019-02-27T20:13:28.047Z,29.95
2019-02-27T20:15:58.538Z,26.50
2019-02-27T20:18:29.020Z,37.75
2019-02-27T20:20:59.558Z,36.85
2019-02-27T20:23:30.150Z,34.27
2019-02-27T20:26:00.774Z,31.73
2019-02-27T20:28:31.758Z,29.73
2019-02-27T20:31:03.298Z,29.85
2019-02-27T20:33:34.197Z,28.07
2019-02-27T20:36:06.130Z,26.70
2019-02-27T20:38:36.999Z,33.40
2019-02-27T20:41:07.549Z,37.40
2019-02-27T20:43:38.079Z,30.20
2019-02-27T20:46:10.362Z,29.57
2019-02-27T20:48:40.926Z,30.70
2019-02-27T20:51:11.550Z,26.50
2019-02-27T20:53:42.259Z,30.88
2019-02-27T20:56:12.759Z,27.87
2019-02-27T20:58:43.411Z,29.35
2019-02-27T21:01:14.062Z,27.13
2019-02-27T21:03:44.577Z,27.82
2019-02-27T21:06:15.108Z,27.90
2019-02-27T21:08:45.701Z,31.50
2019-02-27T21:11:16.181Z,31.62
2019-02-27T21:13:49.321Z,39.63
2019-02-27T21:16:19.067Z,27.90
2019-02-27T21:18:49.564Z,31.05
2019-02-27T21:21:20.744Z,34.73
2019-02-27T21:23:51.634Z,30.90
2019-02-27T21:26:22.953Z,31.90
2019-02-27T21:28:58.527Z,30.72
2019-02-27T21:31:27.542Z,26.57
2019-02-27T21:33:58.338Z,28.77
2019-02-27T21:36:28.842Z,29.18
2019-02-27T21:38:59.441Z,30.48
2019-02-27T21:41:29.945Z,28.25
2019-02-27T21:44:00.466Z,28.45
2019-02-27T21:46:31.011Z,34.38
2019-02-27T21:49:01.545Z,29.17
2019-02-27T21:51:32.127Z,31.48
2019-02-27T21:54:03.825Z,27.65
2019-02-27T21:56:34.909Z,31.68
2019-02-27T21:59:08.460Z,33.33
2019-02-27T22:01:38.950Z,28.07
2019-02-27T22:04:10.819Z,28.00
2019-02-27T22:06:41.361Z,29.52
2019-02-27T22:09:13.568Z,25.80
2019-02-27T22:11:44.216Z,28.17
2019-02-27T22:14:16.664Z,33.48
2019-02-27T22:16:46.980Z,31.05
2019-02-27T22:19:18.887Z,36.70
2019-02-27T22:21:49.762Z,32.80
2019-02-27T22:24:21.017Z,30.08
2019-02-27T22:26:52.227Z,36.50
2019-02-27T22:29:25.199Z,35.50
2019-02-27T22:31:55.144Z,31.95
2019-02-27T22:34:27.720Z,29.12
2019-02-27T22:36:58.232Z,37.40
2019-02-27T22:39:31.694Z,37.08
2019-02-27T22:42:01.541Z,33.98
2019-02-27T22:44:32.079Z,35.03
2019-02-27T22:47:02.645Z,37.45
2019-02-27T22:49:33.248Z,35.17
2019-02-27T22:52:03.748Z,38.35
2019-02-27T22:54:36.007Z,35.30
2019-02-27T22:57:07.059Z,33.53
2019-02-27T22:59:38.136Z,38.42
2019-02-27T23:02:08.859Z,34.58
2019-02-27T23:04:39.629Z,48.55
2019-02-27T23:07:10.650Z,36.60
2019-02-27T23:09:41.429Z,31.45
2019-02-27T23:12:12.057Z,36.58
2019-02-27T23:14:42.607Z,34.35
2019-02-27T23:17:13.109Z,37.95
2019-02-27T23:19:46.198Z,37.45
2019-02-27T23:22:17.523Z,39.75
2019-02-27T23:25:06.135Z,40.50
2019-02-27T23:27:36.648Z,39.60
2019-02-27T23:30:14.787Z,38.08
2019-02-27T23:32:41.282Z,44.30
2019-02-27T23:35:15.845Z,44.85
2019-02-27T23:37:44.059Z,47.43
2019-02-27T23:40:17.570Z,46.18
2019-02-27T23:42:46.825Z,55.10
2019-02-27T23:45:17.312Z,54.13
2019-02-27T23:47:47.863Z,49.20
2019-02-27T23:50:18.330Z,49.77
2019-02-27T23:52:48.819Z,57.38
2019-02-27T23:55:19.253Z,54.07
2019-02-27T23:57:49.736Z,52.30
